Time;durP1;ratioP1;P1;durP2;ratioP2;P2;SDS_P1;SDS_P2;PMS_P1;PMS_P2;Temp;Humidity;BMP_temperature;BMP_pressure;BME280_temperature;BME280_humidity;BME280_pressure;Samples;Min_cycle;Max_cycle;Signal;HPM_P1;HPM_P2
2023/04/06 00:00:41;;;;;;;10.93;5.28;;;4.50;87.40;;;;;;4013616;29;20026;-89
2023/04/06 00:02:43;;;;;;;12.63;4.82;;;4.50;87.90;;;;;;4013365;29;20213;-90
2023/04/06 00:04:44;;;;;;;7.95;5.10;;;5.50;88.30;;;;;;4013035;29;20030;-90
2023/04/06 00:06:47;;;;;;;7.60;5.05;;;4.50;87.90;;;;;;4007026;29;20123;-89
2023/04/06 00:08:50;;;;;;;8.52;5.00;;;5.50;88.40;;;;;;4003878;29;20113;-90
2023/04/06 00:10:52;;;;;;;9.07;5.43;;;5.50;88.50;;;;;;4006990;29;20451;-90
2023/04/06 00:12:57;;;;;;;12.20;6.53;;;4.40;88.20;;;;;;4013768;29;20134;-90
2023/04/06 00:14:59;;;;;;;8.20;4.85;;;5.00;89.50;;;;;;4013536;29;20058;-90
2023/04/06 00:17:01;;;;;;;7.95;4.72;;;4.40;88.40;;;;;;4013377;29;20053;-89
2023/04/06 00:19:02;;;;;;;9.50;5.20;;;4.50;89.10;;;;;;4013230;29;20077;-89
2023/04/06 00:21:03;;;;;;;10.85;5.07;;;4.40;89.90;;;;;;3997023;29;20061;-89
2023/04/06 00:23:05;;;;;;;14.10;5.70;;;4.40;89.90;;;;;;3996960;29;20415;-89
2023/04/06 00:25:15;;;;;;;9.75;5.20;;;4.30;90.10;;;;;;4012879;29;20538;-90
2023/04/06 00:27:22;;;;;;;10.85;5.20;;;4.40;90.30;;;;;;3998092;29;20058;-90
2023/04/06 00:29:23;;;;;;;7.95;4.80;;;4.80;90.50;;;;;;3997191;29;20059;-89
2023/04/06 00:31:24;;;;;;;10.95;5.47;;;4.30;90.30;;;;;;4014331;29;20575;-89
2023/04/06 00:33:34;;;;;;;11.27;5.30;;;4.40;90.60;;;;;;4013139;29;20050;-89
2023/04/06 00:35:39;;;;;;;11.00;5.57;;;4.30;90.70;;;;;;4010864;29;20643;-89
2023/04/06 00:37:40;;;;;;;11.05;5.82;;;4.30;90.60;;;;;;3999504;29;20077;-89
2023/04/06 00:39:42;;;;;;;12.15;5.68;;;4.30;90.80;;;;;;3981522;29;20091;-89
2023/04/06 00:41:49;;;;;;;9.07;4.38;;;5.60;91.20;;;;;;4003288;29;20062;-89
2023/04/06 00:43:51;;;;;;;10.25;5.10;;;4.30;90.90;;;;;;3995910;29;20088;-89
2023/04/06 00:45:54;;;;;;;9.85;5.22;;;4.30;91.30;;;;;;4011693;29;20057;-89
2023/04/06 00:47:56;;;;;;;8.48;5.40;;;4.30;91.30;;;;;;3996479;29;20050;-89
2023/04/06 00:50:03;;;;;;;10.18;5.70;;;4.40;91.50;;;;;;3995370;29;20504;-89
2023/04/06 00:52:05;;;;;;;11.38;5.53;;;4.20;91.40;;;;;;3997026;29;20110;-89
2023/04/06 00:54:08;;;;;;;9.38;5.15;;;4.10;91.90;;;;;;3997800;29;20058;-89
2023/04/06 00:56:09;;;;;;;11.30;5.85;;;4.10;91.60;;;;;;3980620;29;20063;-89
2023/04/06 00:58:17;;;;;;;8.02;4.90;;;4.10;91.80;;;;;;3982473;29;20050;-89
2023/04/06 01:00:26;;;;;;;9.00;5.00;;;4.10;92.10;;;;;;3995700;29;20050;-89
2023/04/06 01:02:27;;;;;;;9.57;5.22;;;4.00;92.10;;;;;;4014054;29;20056;-88
2023/04/06 01:04:32;;;;;;;12.10;5.35;;;5.20;92.60;;;;;;3997735;29;20591;-89
2023/04/06 01:06:38;;;;;;;8.95;5.82;;;3.80;92.00;;;;;;4011559;29;20042;-90
2023/04/06 01:08:39;;;;;;;8.60;5.40;;;4.00;92.20;;;;;;4012780;29;20089;-89
2023/04/06 01:10:50;;;;;;;9.75;5.63;;;3.90;92.50;;;;;;4009963;29;20388;-89
2023/04/06 01:12:53;;;;;;;9.77;5.57;;;4.60;92.70;;;;;;4012192;29;20520;-89
2023/04/06 01:14:56;;;;;;;8.30;5.15;;;3.90;92.60;;;;;;4012308;29;20396;-89
2023/04/06 01:17:02;;;;;;;11.52;5.55;;;4.30;92.70;;;;;;3995490;29;20058;-90
2023/04/06 01:19:10;;;;;;;8.77;4.72;;;3.80;92.80;;;;;;4012924;29;20057;-89
2023/04/06 01:21:15;;;;;;;12.50;5.57;;;3.80;92.90;;;;;;4012279;29;20069;-89
2023/04/06 01:23:16;;;;;;;9.52;5.25;;;3.90;93.10;;;;;;3995904;29;20451;-89
2023/04/06 01:25:18;;;;;;;8.85;5.10;;;4.60;93.30;;;;;;3997389;29;20050;-89
2023/04/06 01:27:18;;;;;;;10.27;5.57;;;2.90;92.90;;;;;;4010742;29;20046;-90
2023/04/06 01:29:20;;;;;;;8.45;5.05;;;3.60;93.20;;;;;;3997585;29;20049;-88
2023/04/06 01:31:25;;;;;;;11.18;5.43;;;3.60;93.30;;;;;;4011032;29;20076;-90
2023/04/06 01:33:27;;;;;;;9.60;5.30;;;3.60;93.30;;;;;;3983542;29;20066;-90
2023/04/06 01:35:30;;;;;;;10.48;5.43;;;4.00;93.60;;;;;;3998535;29;20147;-89
2023/04/06 01:37:32;;;;;;;9.95;5.18;;;3.50;93.50;;;;;;3997015;29;20669;-88
2023/04/06 01:39:43;;;;;;;10.35;5.60;;;4.10;93.80;;;;;;4013569;29;20030;-89
2023/04/06 01:41:44;;;;;;;9.45;5.50;;;3.40;93.60;;;;;;4012185;29;20109;-89
2023/04/06 01:43:47;;;;;;;9.63;5.57;;;4.60;94.20;;;;;;4029277;29;20072;-89
2023/04/06 01:45:52;;;;;;;8.82;5.35;;;2.80;93.80;;;;;;4012833;29;20069;-89
2023/04/06 01:47:53;;;;;;;11.07;5.45;;;3.80;94.00;;;;;;4027720;29;20307;-89
2023/04/06 01:49:54;;;;;;;10.55;5.50;;;3.20;94.00;;;;;;4028027;29;20049;-89
2023/04/06 01:51:58;;;;;;;9.45;5.18;;;3.10;94.20;;;;;;4025619;29;20053;-89
2023/04/06 01:53:59;;;;;;;12.13;5.65;;;3.10;94.30;;;;;;4026643;29;20045;-89
2023/04/06 01:56:00;;;;;;;10.40;6.20;;;3.10;94.30;;;;;;4025463;29;20085;-89
2023/04/06 01:58:01;;;;;;;9.75;6.20;;;4.00;94.40;;;;;;4027205;29;20050;-89
2023/04/06 02:00:05;;;;;;;11.52;6.68;;;3.00;94.30;;;;;;4027359;29;20049;-89
2023/04/06 02:02:08;;;;;;;9.55;5.95;;;3.00;94.30;;;;;;4024334;29;20449;-90
2023/04/06 02:04:09;;;;;;;11.43;6.80;;;3.00;94.60;;;;;;3995993;29;20046;-90
2023/04/06 02:06:12;;;;;;;8.80;5.93;;;1.90;94.10;;;;;;4010034;29;20060;-90
2023/04/06 02:08:19;;;;;;;10.38;5.25;;;2.80;94.70;;;;;;4007558;29;20407;-89
2023/04/06 02:10:21;;;;;;;9.52;5.93;;;2.90;94.90;;;;;;4011264;29;20065;-89
2023/04/06 02:12:23;;;;;;;11.10;6.22;;;3.20;95.20;;;;;;4026278;29;20064;-90
2023/04/06 02:14:29;;;;;;;10.43;5.80;;;2.80;95.00;;;;;;4010916;29;20049;-87
2023/04/06 02:16:30;;;;;;;9.93;5.85;;;2.80;95.00;;;;;;4026458;29;20122;-88
2023/04/06 02:18:33;;;;;;;10.57;5.80;;;2.70;95.20;;;;;;4027434;29;20058;-88
2023/04/06 02:20:40;;;;;;;12.40;7.35;;;2.20;95.20;;;;;;4010572;29;20058;-89
2023/04/06 02:22:45;;;;;;;11.93;6.40;;;2.90;95.50;;;;;;4025606;29;20041;-88
2023/04/06 02:24:49;;;;;;;11.98;6.10;;;2.70;95.30;;;;;;4028009;29;20132;-88
2023/04/06 02:26:50;;;;;;;12.80;6.22;;;2.70;95.60;;;;;;3996767;29;20058;-89
2023/04/06 02:28:55;;;;;;;14.00;6.22;;;3.90;96.10;;;;;;3997879;29;20549;-89
2023/04/06 02:31:01;;;;;;;10.55;6.28;;;4.20;96.40;;;;;;3981164;29;20094;-90
2023/04/06 02:33:03;;;;;;;11.02;6.40;;;2.60;96.20;;;;;;3997832;29;20051;-89
2023/04/06 02:35:04;;;;;;;11.13;6.22;;;2.60;96.10;;;;;;3998108;29;20125;-90
2023/04/06 02:37:05;;;;;;;10.38;6.45;;;2.30;96.20;;;;;;3996639;29;20090;-89
2023/04/06 02:39:10;;;;;;;11.60;6.00;;;3.10;96.10;;;;;;3983170;29;20063;-89
2023/04/06 02:41:21;;;;;;;10.55;6.35;;;2.60;96.20;;;;;;3981271;29;20086;-90
2023/04/06 02:43:22;;;;;;;10.13;6.90;;;2.50;96.10;;;;;;3996014;29;20058;-89
2023/04/06 02:45:24;;;;;;;11.20;6.95;;;4.00;96.60;;;;;;3981812;29;20162;-89
2023/04/06 02:47:26;;;;;;;11.68;6.50;;;3.60;96.50;;;;;;3996462;29;20054;-89
2023/04/06 02:49:26;;;;;;;14.10;6.53;;;2.50;96.50;;;;;;4011664;29;20056;-89
2023/04/06 02:51:30;;;;;;;10.60;6.45;;;1.50;96.00;;;;;;4010462;29;20413;-88
2023/04/06 02:53:38;;;;;;;12.23;6.82;;;1.40;96.30;;;;;;4012196;29;20066;-88
2023/04/06 02:55:43;;;;;;;10.15;6.70;;;3.40;97.00;;;;;;4013272;29;20046;-88
2023/04/06 02:57:46;;;;;;;12.50;6.80;;;2.50;96.70;;;;;;4010823;29;20423;-89
2023/04/06 02:59:47;;;;;;;12.05;7.07;;;2.70;97.00;;;;;;4011351;29;20050;-88
2023/04/06 03:01:50;;;;;;;12.65;6.60;;;2.50;97.20;;;;;;4024408;29;20418;-89
2023/04/06 03:03:53;;;;;;;12.73;6.90;;;3.30;97.10;;;;;;4011631;29;20058;-89
2023/04/06 03:05:56;;;;;;;15.02;7.13;;;2.50;97.20;;;;;;4026961;29;20537;-89
2023/04/06 03:07:57;;;;;;;13.77;6.93;;;2.10;97.00;;;;;;4026189;29;20148;-89
2023/04/06 03:10:00;;;;;;;12.23;6.78;;;1.30;97.10;;;;;;4027628;29;20049;-88
2023/04/06 03:12:01;;;;;;;13.15;6.43;;;3.80;97.70;;;;;;4027897;29;20148;-89
2023/04/06 03:14:03;;;;;;;10.48;6.80;;;2.70;97.60;;;;;;4032044;29;20049;-89
2023/04/06 03:16:12;;;;;;;15.05;7.43;;;2.50;97.30;;;;;;4028868;29;20449;-89
2023/04/06 03:18:14;;;;;;;12.07;7.40;;;2.40;97.20;;;;;;4030163;29;20141;-89
2023/04/06 03:20:16;;;;;;;10.80;6.07;;;2.40;97.40;;;;;;4031635;29;20543;-89
2023/04/06 03:22:16;;;;;;;13.98;7.18;;;2.40;97.50;;;;;;4018598;29;20050;-90
2023/04/06 03:24:18;;;;;;;12.18;7.20;;;2.40;97.50;;;;;;3999458;29;20122;-89
2023/04/06 03:26:28;;;;;;;14.10;6.90;;;2.40;97.40;;;;;;3998693;29;20183;-88
2023/04/06 03:28:29;;;;;;;10.88;6.30;;;2.10;97.50;;;;;;4013947;29;20041;-89
2023/04/06 03:30:31;;;;;;;17.08;7.22;;;2.40;97.40;;;;;;4015757;29;20384;-89
2023/04/06 03:32:32;;;;;;;13.35;6.38;;;3.80;97.90;;;;;;4013959;29;20050;-89
2023/04/06 03:34:34;;;;;;;13.10;7.05;;;2.50;97.80;;;;;;4014302;29;20068;-88
2023/04/06 03:36:37;;;;;;;13.50;8.18;;;2.90;97.70;;;;;;4015205;29;20041;-88
2023/04/06 03:38:38;;;;;;;10.85;6.05;;;3.30;97.90;;;;;;4015542;29;20054;-88
2023/04/06 03:40:40;;;;;;;13.25;7.60;;;3.40;98.20;;;;;;3997372;29;20095;-89
2023/04/06 03:42:45;;;;;;;13.30;6.15;;;2.30;97.60;;;;;;4015252;29;20487;-88
2023/04/06 03:44:46;;;;;;;10.88;6.70;;;2.20;97.60;;;;;;4016419;29;20046;-89
2023/04/06 03:46:47;;;;;;;13.20;6.82;;;2.10;97.80;;;;;;4015762;29;20059;-89
2023/04/06 03:48:48;;;;;;;13.38;7.15;;;2.70;98.00;;;;;;4016751;29;20110;-89
2023/04/06 03:50:49;;;;;;;12.35;7.75;;;2.20;98.10;;;;;;4014073;29;20057;-89
2023/04/06 03:52:53;;;;;;;12.60;6.95;;;2.10;98.10;;;;;;4015827;29;20081;-89
2023/04/06 03:54:56;;;;;;;11.13;7.00;;;2.10;98.20;;;;;;3999376;29;20058;-89
2023/04/06 03:56:57;;;;;;;15.27;6.80;;;2.20;98.50;;;;;;4015085;29;20122;-89
2023/04/06 03:58:58;;;;;;;11.82;6.53;;;2.70;98.60;;;;;;4014251;29;20082;-90
2023/04/06 04:01:09;;;;;;;14.82;7.85;;;3.20;98.70;;;;;;4014588;29;20046;-89
2023/04/06 04:03:15;;;;;;;13.18;7.80;;;2.30;98.70;;;;;;4000239;29;20508;-88
2023/04/06 04:05:24;;;;;;;16.20;7.38;;;2.00;98.70;;;;;;4016237;29;20045;-88
2023/04/06 04:07:35;;;;;;;12.30;7.50;;;2.00;98.80;;;;;;4000231;29;20076;-88
2023/04/06 04:09:38;;;;;;;15.07;7.60;;;1.90;98.80;;;;;;4000437;29;20170;-90
2023/04/06 04:11:46;;;;;;;16.88;7.05;;;1.10;98.70;;;;;;3986464;29;20146;-89
2023/04/06 04:13:50;;;;;;;11.68;7.75;;;1.80;98.90;;;;;;4000147;29;20431;-89
2023/04/06 04:15:53;;;;;;;12.52;6.88;;;1.80;99.10;;;;;;4000020;29;20166;-88
2023/04/06 04:17:56;;;;;;;13.02;7.13;;;1.80;99.30;;;;;;3999195;29;20050;-90
2023/04/06 04:19:58;;;;;;;13.82;6.88;;;1.80;99.20;;;;;;4014983;29;20200;-89
2023/04/06 04:22:04;;;;;;;13.10;6.53;;;2.50;99.50;;;;;;4000511;29;20052;-90
2023/04/06 04:24:06;;;;;;;14.05;6.70;;;1.70;99.40;;;;;;3998597;29;20046;-89
2023/04/06 04:26:08;;;;;;;20.08;7.80;;;1.70;99.50;;;;;;4000442;29;20050;-88
2023/04/06 04:28:13;;;;;;;10.40;6.53;;;1.80;99.50;;;;;;4000000;29;20050;-89
2023/04/06 04:30:15;;;;;;;13.63;6.68;;;2.60;99.70;;;;;;4018054;29;20054;-90
2023/04/06 04:32:16;;;;;;;14.93;7.05;;;1.70;99.40;;;;;;4014234;29;20062;-89
2023/04/06 04:34:23;;;;;;;13.50;7.70;;;1.60;99.80;;;;;;3999921;29;20110;-89
2023/04/06 04:36:32;;;;;;;11.45;6.95;;;1.30;99.50;;;;;;4015796;29;20574;-90
2023/04/06 04:38:34;;;;;;;13.52;6.40;;;0.50;99.30;;;;;;4000372;29;20065;-89
2023/04/06 04:40:36;;;;;;;12.00;5.93;;;1.90;99.70;;;;;;3996917;29;20053;-90
2023/04/06 04:42:44;;;;;;;13.50;6.80;;;3.00;99.90;;;;;;4009037;29;20060;-90
2023/04/06 04:44:45;;;;;;;10.10;6.53;;;1.70;99.30;;;;;;4015472;29;20053;-89
2023/04/06 04:46:48;;;;;;;13.82;7.38;;;3.10;99.90;;;;;;4001991;29;20030;-90
2023/04/06 04:48:50;;;;;;;10.40;6.47;;;1.70;99.50;;;;;;4014983;29;20057;-89
2023/04/06 04:50:58;;;;;;;12.00;6.47;;;2.50;99.60;;;;;;4016373;29;20046;-89
2023/04/06 04:53:47;;;;;;;12.93;6.72;;;1.80;98.90;;;;;;4002881;29;20046;-89
2023/04/06 04:56:39;;;;;;;13.48;6.25;;;1.60;99.00;;;;;;4018406;29;20059;-90
2023/04/06 04:59:07;;;;;;;10.63;5.90;;;1.60;99.10;;;;;;4003072;29;20054;-89
2023/04/06 05:04:54;;;;;;;11.27;6.22;;;1.70;98.80;;;;;;4038838;29;20085;-89
2023/04/06 05:10:12;;;;;;;11.55;6.63;;;1.20;98.80;;;;;;4028650;29;20054;-89
2023/04/06 05:12:14;;;;;;;12.05;6.00;;;1.60;98.80;;;;;;4027964;29;20042;-89
2023/04/06 05:14:23;;;;;;;11.55;5.63;;;2.20;99.00;;;;;;4028491;29;20069;-90
2023/04/06 05:16:34;;;;;;;14.15;7.50;;;1.70;99.10;;;;;;4028547;29;20091;-89
2023/04/06 05:18:42;;;;;;;13.23;6.10;;;1.60;99.30;;;;;;4012803;29;20087;-88
2023/04/06 05:20:46;;;;;;;13.68;7.05;;;1.60;98.80;;;;;;4015350;29;20419;-89
2023/04/06 05:22:48;;;;;;;14.40;6.40;;;1.70;98.80;;;;;;4006346;29;20031;-89
2023/04/06 05:24:52;;;;;;;15.75;6.88;;;2.40;99.30;;;;;;4008005;29;20066;-89
2023/04/06 05:26:56;;;;;;;12.88;7.18;;;1.60;99.40;;;;;;4005768;29;20538;-89
2023/04/06 05:28:57;;;;;;;12.13;6.50;;;1.60;99.10;;;;;;4002998;29;20054;-88
2023/04/06 05:31:03;;;;;;;19.05;7.32;;;1.60;99.30;;;;;;4000113;29;20058;-89
2023/04/06 05:33:06;;;;;;;11.15;6.30;;;0.60;98.80;;;;;;4000922;29;20584;-89
2023/04/06 05:35:10;;;;;;;13.00;7.07;;;1.60;99.40;;;;;;4014344;29;20052;-89
2023/04/06 05:37:12;;;;;;;12.45;6.40;;;1.60;99.10;;;;;;4011549;29;20049;-89
2023/04/06 05:39:19;;;;;;;14.05;6.95;;;1.60;99.20;;;;;;4014874;29;20073;-88
2023/04/06 05:41:21;;;;;;;14.48;6.95;;;1.70;99.20;;;;;;3986691;29;20497;-91
2023/04/06 05:43:22;;;;;;;11.45;6.38;;;1.70;98.90;;;;;;4001919;29;20523;-90
2023/04/06 05:45:23;;;;;;;11.88;7.10;;;1.70;99.20;;;;;;4000333;29;20117;-89
2023/04/06 05:47:45;;;;;;;14.93;7.10;;;1.70;99.10;;;;;;4000858;29;20106;-89
2023/04/06 05:49:59;;;;;;;11.30;6.43;;;1.80;98.90;;;;;;4016518;29;20073;-90
2023/04/06 05:52:12;;;;;;;10.63;6.53;;;1.80;98.80;;;;;;4014563;29;20531;-90
2023/04/06 05:54:17;;;;;;;12.27;6.28;;;1.60;98.60;;;;;;3999481;29;20055;-89
2023/04/06 05:56:20;;;;;;;11.98;6.00;;;2.00;99.00;;;;;;4000638;29;20519;-89
2023/04/06 05:58:24;;;;;;;9.57;5.63;;;1.80;98.50;;;;;;4028931;29;20145;-89
2023/04/06 06:00:26;;;;;;;11.50;5.57;;;1.80;98.30;;;;;;4015223;29;20459;-90
2023/04/06 06:02:32;;;;;;;14.30;5.90;;;1.90;98.50;;;;;;4030522;29;20090;-89
2023/04/06 06:04:35;;;;;;;9.63;5.78;;;2.30;98.60;;;;;;4006330;29;20053;-90
2023/04/06 06:06:37;;;;;;;10.35;5.90;;;2.00;98.10;;;;;;3999914;29;20503;-89
2023/04/06 06:08:38;;;;;;;9.75;5.75;;;3.30;98.30;;;;;;3998268;29;20038;-89
2023/04/06 06:10:40;;;;;;;13.32;6.70;;;2.10;97.80;;;;;;4009114;29;20046;-89
2023/04/06 06:12:42;;;;;;;12.82;5.95;;;3.60;98.10;;;;;;3998345;29;20089;-89
2023/04/06 06:14:44;;;;;;;10.20;5.53;;;2.20;97.90;;;;;;4014452;29;20065;-88
2023/04/06 06:16:55;;;;;;;11.48;5.38;;;2.70;97.60;;;;;;4013437;29;20079;-89
2023/04/06 06:18:57;;;;;;;12.02;5.28;;;2.30;97.40;;;;;;4013860;29;20068;-89
2023/04/06 06:21:00;;;;;;;8.20;5.10;;;2.40;97.10;;;;;;4014904;29;20041;-87
2023/04/06 06:23:01;;;;;;;9.98;5.38;;;2.40;96.70;;;;;;3998320;29;20082;-88
2023/04/06 06:25:02;;;;;;;10.13;5.32;;;2.50;96.90;;;;;;3998795;29;20127;-89
2023/04/06 06:27:09;;;;;;;12.93;5.50;;;2.60;96.70;;;;;;4004987;29;20121;-89
2023/04/06 06:29:12;;;;;;;10.45;5.45;;;2.60;96.50;;;;;;4009022;29;20110;-89
2023/04/06 06:31:25;;;;;;;9.20;5.30;;;2.90;96.50;;;;;;4015356;29;20046;-90
2023/04/06 06:33:29;;;;;;;11.60;6.07;;;2.80;96.20;;;;;;4008195;29;20424;-88
2023/04/06 06:35:35;;;;;;;13.20;5.78;;;2.80;95.80;;;;;;3983893;29;20059;-88
2023/04/06 06:37:41;;;;;;;11.10;6.20;;;3.00;95.90;;;;;;3999991;29;20146;-89
2023/04/06 06:39:45;;;;;;;12.68;5.68;;;3.00;95.60;;;;;;3998876;29;20042;-88
2023/04/06 06:41:45;;;;;;;12.40;5.68;;;3.10;95.60;;;;;;3997310;29;20064;-88
2023/04/06 06:43:52;;;;;;;9.32;5.95;;;3.30;95.50;;;;;;4016654;29;20078;-88
2023/04/06 06:45:54;;;;;;;9.15;5.63;;;4.30;95.70;;;;;;3991311;29;20431;-87
2023/04/06 06:47:56;;;;;;;12.02;5.95;;;3.40;95.30;;;;;;4014347;29;20060;-88
2023/04/06 06:49:57;;;;;;;15.32;5.80;;;3.40;94.90;;;;;;4007513;29;20051;-87
2023/04/06 06:52:00;;;;;;;10.15;5.72;;;3.50;94.90;;;;;;4003105;29;20133;-86
2023/04/06 06:54:01;;;;;;;10.98;5.68;;;3.60;94.80;;;;;;4015175;29;20194;-86
2023/04/06 06:56:09;;;;;;;12.05;7.00;;;4.90;95.00;;;;;;4012998;29;20057;-87
2023/04/06 06:58:11;;;;;;;11.23;6.40;;;3.90;94.70;;;;;;4011046;29;20435;-86
2023/04/06 07:00:17;;;;;;;10.27;5.28;;;4.10;94.30;;;;;;4010725;29;20074;-87
2023/04/06 07:02:19;;;;;;;19.65;7.07;;;4.00;94.20;;;;;;4013088;29;20053;-86
2023/04/06 07:04:26;;;;;;;12.25;5.68;;;4.10;94.10;;;;;;4009432;29;20103;-87
2023/04/06 07:06:26;;;;;;;12.02;6.53;;;4.30;93.90;;;;;;4000600;29;20457;-88
2023/04/06 07:08:27;;;;;;;13.98;5.97;;;4.40;93.70;;;;;;4019160;29;20041;-87
2023/04/06 07:10:30;;;;;;;8.95;5.35;;;4.50;93.60;;;;;;4020365;29;20049;-88
2023/04/06 07:12:34;;;;;;;8.63;5.63;;;4.70;93.30;;;;;;4015152;29;20053;-88
2023/04/06 07:14:36;;;;;;;11.55;6.40;;;3.70;93.00;;;;;;3995012;29;20470;-88
2023/04/06 07:16:39;;;;;;;12.27;5.32;;;4.10;92.70;;;;;;3997115;29;20483;-86
2023/04/06 07:18:39;;;;;;;10.55;6.97;;;5.00;92.50;;;;;;3980589;29;20067;-87
2023/04/06 07:20:41;;;;;;;10.52;5.75;;;4.80;92.50;;;;;;3996557;29;20526;-86
2023/04/06 07:22:48;;;;;;;11.85;6.38;;;5.20;92.50;;;;;;3999817;29;20077;-86
2023/04/06 07:24:50;;;;;;;10.68;5.93;;;5.70;92.30;;;;;;4010927;29;20046;-87
2023/04/06 07:26:52;;;;;;;10.18;5.45;;;5.50;92.20;;;;;;4009851;29;20045;-86
2023/04/06 07:28:53;;;;;;;10.70;5.95;;;6.20;92.40;;;;;;4010008;29;20038;-87
2023/04/06 07:30:54;;;;;;;11.00;6.55;;;5.60;91.80;;;;;;4011718;29;20056;-86
2023/04/06 07:32:56;;;;;;;11.00;5.65;;;5.70;91.60;;;;;;4001700;29;20087;-87
2023/04/06 07:34:59;;;;;;;11.27;5.28;;;5.90;91.40;;;;;;4024033;29;20097;-87
2023/04/06 07:37:00;;;;;;;10.65;5.22;;;6.10;91.70;;;;;;4026252;29;20440;-86
2023/04/06 07:39:01;;;;;;;10.20;6.30;;;6.20;91.10;;;;;;4019203;29;20117;-88
2023/04/06 07:41:03;;;;;;;15.00;6.07;;;6.30;90.80;;;;;;3995156;29;20046;-84
2023/04/06 07:43:10;;;;;;;11.30;5.68;;;6.30;90.70;;;;;;3993911;29;20039;-86
2023/04/06 07:45:11;;;;;;;10.23;5.88;;;5.40;90.40;;;;;;3979869;29;20531;-87
2023/04/06 07:47:12;;;;;;;14.88;6.65;;;6.60;90.40;;;;;;3984367;29;20411;-87
2023/04/06 07:49:13;;;;;;;10.30;6.00;;;6.60;90.30;;;;;;4008252;29;20075;-87
2023/04/06 07:51:16;;;;;;;10.60;5.55;;;6.80;90.00;;;;;;4010460;29;20038;-86
2023/04/06 07:53:17;;;;;;;9.57;5.97;;;7.00;89.90;;;;;;4007239;29;20046;-88
2023/04/06 07:55:17;;;;;;;10.63;5.05;;;7.30;89.50;;;;;;4007958;29;20100;-88
2023/04/06 07:57:18;;;;;;;8.50;5.93;;;7.10;88.30;;;;;;4006143;29;20063;-87
2023/04/06 07:59:19;;;;;;;12.23;5.30;;;7.30;88.30;;;;;;4003731;29;20488;-88
2023/04/06 08:01:20;;;;;;;13.57;5.75;;;7.40;88.30;;;;;;4005488;29;20053;-88
2023/04/06 08:03:25;;;;;;;9.73;5.65;;;7.70;88.20;;;;;;4007996;29;20042;-87
2023/04/06 08:05:25;;;;;;;10.55;5.50;;;8.20;87.10;;;;;;4011860;29;20081;-87
2023/04/06 08:07:26;;;;;;;10.70;5.75;;;7.80;86.60;;;;;;3998972;29;20512;-86
2023/04/06 08:09:28;;;;;;;12.30;6.28;;;8.20;85.90;;;;;;4003280;29;20484;-87
2023/04/06 08:11:31;;;;;;;12.50;6.40;;;8.10;85.10;;;;;;4018460;29;20542;-87
2023/04/06 08:13:33;;;;;;;10.05;5.63;;;8.20;84.50;;;;;;4011269;29;20456;-89
2023/04/06 08:15:35;;;;;;;13.98;6.10;;;8.30;83.80;;;;;;4010269;29;20050;-88
2023/04/06 08:17:36;;;;;;;11.55;5.43;;;8.40;83.70;;;;;;4010000;29;20081;-90
2023/04/06 08:19:37;;;;;;;10.18;6.03;;;8.50;82.40;;;;;;3995744;29;20113;-89
2023/04/06 08:21:48;;;;;;;10.35;5.57;;;8.90;81.80;;;;;;3993608;29;20054;-90
2023/04/06 08:23:48;;;;;;;10.02;5.70;;;8.60;80.70;;;;;;4011823;29;20448;-90
2023/04/06 08:25:49;;;;;;;9.68;5.18;;;8.70;81.00;;;;;;4012786;29;20107;-89
2023/04/06 08:27:51;;;;;;;13.10;5.78;;;8.90;80.60;;;;;;4006816;29;20059;-90
2023/04/06 08:29:52;;;;;;;8.18;4.72;;;9.00;80.20;;;;;;4023296;29;20046;-90
2023/04/06 08:31:53;;;;;;;13.18;5.60;;;9.20;79.50;;;;;;3994711;29;20058;-88
2023/04/06 08:33:54;;;;;;;11.13;6.25;;;9.30;78.80;;;;;;4012723;29;20483;-89
2023/04/06 08:36:11;;;;;;;13.05;5.78;;;9.50;78.40;;;;;;4010609;29;20068;-89
2023/04/06 08:38:12;;;;;;;10.70;5.05;;;9.80;75.70;;;;;;3982443;29;20047;-89
2023/04/06 08:40:18;;;;;;;18.95;6.53;;;9.90;77.30;;;;;;4006169;29;20111;-89
2023/04/06 08:42:21;;;;;;;11.13;6.40;;;10.00;76.50;;;;;;4012360;29;20049;-90
2023/04/06 08:44:22;;;;;;;10.48;5.32;;;10.30;76.20;;;;;;3998811;29;20046;-94
2023/04/06 08:46:33;;;;;;;12.45;6.20;;;10.20;75.70;;;;;;3979993;29;20047;-89
2023/04/06 08:48:36;;;;;;;17.77;6.50;;;10.80;75.60;;;;;;3999001;29;20145;-89
2023/04/06 08:50:38;;;;;;;10.85;5.40;;;10.80;74.80;;;;;;4034835;29;20485;-90
2023/04/06 08:52:41;;;;;;;13.50;6.82;;;11.00;74.30;;;;;;4002274;29;20243;-89
2023/04/06 08:54:43;;;;;;;9.93;5.90;;;11.00;73.30;;;;;;4015699;29;20052;-89
2023/04/06 08:56:47;;;;;;;13.27;6.28;;;11.00;72.90;;;;;;4012469;29;20089;-89
2023/04/06 08:58:49;;;;;;;10.85;5.38;;;11.10;72.10;;;;;;4025145;29;20104;-87
2023/04/06 09:00:52;;;;;;;12.80;6.70;;;11.40;72.50;;;;;;4009752;29;20053;-89
2023/04/06 09:02:57;;;;;;;12.07;6.07;;;11.60;71.60;;;;;;4010219;29;20054;-90
2023/04/06 09:04:58;;;;;;;12.50;6.60;;;12.10;70.60;;;;;;4011245;29;20054;-90
2023/04/06 09:07:00;;;;;;;12.40;5.28;;;12.40;70.30;;;;;;4008714;29;20054;-89
2023/04/06 09:09:03;;;;;;;13.05;6.93;;;12.80;69.50;;;;;;3999656;29;20055;-91
2023/04/06 09:11:06;;;;;;;14.70;5.90;;;13.10;67.90;;;;;;4014326;29;20446;-92
2023/04/06 09:13:08;;;;;;;12.13;7.45;;;13.70;67.10;;;;;;3991098;29;20117;-91
2023/04/06 09:15:19;;;;;;;11.18;5.93;;;14.10;65.50;;;;;;3984686;29;20062;-91
2023/04/06 09:17:24;;;;;;;14.18;5.68;;;14.40;63.00;;;;;;4011116;29;20058;-91
2023/04/06 09:19:27;;;;;;;10.95;6.00;;;14.50;62.40;;;;;;3989798;29;20058;-92
2023/04/06 09:21:30;;;;;;;11.73;5.72;;;14.70;61.80;;;;;;4006623;29;20056;-93
2023/04/06 09:23:31;;;;;;;13.40;6.30;;;14.80;60.70;;;;;;4020469;29;20048;-90
2023/04/06 09:25:32;;;;;;;10.50;6.25;;;14.90;60.40;;;;;;4015697;29;20137;-91
2023/04/06 09:27:36;;;;;;;10.77;6.38;;;14.90;59.50;;;;;;3998666;29;20499;-89
2023/04/06 09:29:37;;;;;;;10.25;6.00;;;14.90;58.40;;;;;;3998428;29;20050;-90
2023/04/06 09:31:38;;;;;;;10.65;6.43;;;14.60;57.80;;;;;;4013312;29;20037;-91
2023/04/06 09:33:41;;;;;;;9.43;5.70;;;14.00;56.90;;;;;;4020341;29;20053;-90
2023/04/06 09:35:49;;;;;;;13.02;6.15;;;13.80;57.30;;;;;;4017262;29;20054;-91
2023/04/06 09:37:59;;;;;;;9.10;5.85;;;13.90;56.70;;;;;;4020616;29;20054;-90
2023/04/06 09:40:07;;;;;;;10.13;5.63;;;14.00;56.50;;;;;;4018256;29;20117;-89
2023/04/06 09:42:08;;;;;;;12.52;6.82;;;14.30;57.00;;;;;;4014996;29;20026;-90
2023/04/06 09:44:11;;;;;;;10.05;5.60;;;14.00;55.50;;;;;;3998194;29;20050;-92
2023/04/06 09:46:14;;;;;;;11.02;6.13;;;13.60;56.00;;;;;;3997076;29;20046;-91
2023/04/06 09:48:15;;;;;;;14.02;6.28;;;13.20;56.40;;;;;;4011523;29;20061;-91
2023/04/06 09:50:17;;;;;;;13.57;6.28;;;13.10;57.20;;;;;;3996438;29;20066;-90
2023/04/06 09:52:20;;;;;;;9.10;5.75;;;12.80;57.30;;;;;;3996587;29;20050;-91
2023/04/06 09:54:23;;;;;;;12.35;6.82;;;12.30;57.50;;;;;;3996904;29;20450;-92
2023/04/06 09:56:27;;;;;;;10.27;6.60;;;12.60;58.10;;;;;;4011537;29;20054;-91
2023/04/06 09:58:36;;;;;;;10.32;6.65;;;12.40;57.50;;;;;;4011620;29;21431;-90
2023/04/06 10:00:47;;;;;;;;;;;12.10;57.20;;;;;;4013606;29;20041;-90
2023/04/06 10:02:49;;;;;;;11.07;6.60;;;12.00;56.30;;;;;;4022779;29;19979;-91
2023/04/06 10:04:53;;;;;;;13.10;7.68;;;11.80;58.00;;;;;;3997230;29;20503;-89
2023/04/06 10:06:55;;;;;;;13.00;6.93;;;11.70;58.30;;;;;;4013002;29;20082;-90
2023/04/06 10:08:57;;;;;;;20.60;7.78;;;11.60;57.90;;;;;;4011422;29;20053;-90
2023/04/06 10:11:00;;;;;;;10.25;6.15;;;11.80;58.50;;;;;;4013943;29;20079;-90
2023/04/06 10:13:04;;;;;;;11.13;6.70;;;11.70;58.30;;;;;;4002653;29;20107;-91
2023/04/06 10:15:07;;;;;;;12.63;6.85;;;11.80;58.00;;;;;;4018928;29;20042;-92
2023/04/06 10:17:24;;;;;;;11.65;7.65;;;11.80;58.70;;;;;;4022121;29;20052;-91
2023/04/06 10:19:32;;;;;;;9.73;6.30;;;12.10;58.30;;;;;;4009593;29;20054;-91
2023/04/06 10:21:35;;;;;;;11.23;6.93;;;11.90;58.30;;;;;;4010536;29;20047;-90
2023/04/06 10:23:51;;;;;;;15.15;7.80;;;12.00;58.40;;;;;;4042043;29;20037;-91
2023/04/06 10:25:57;;;;;;;12.88;7.43;;;12.00;57.90;;;;;;4010067;29;20062;-91
2023/04/06 10:28:08;;;;;;;13.90;7.63;;;12.10;58.30;;;;;;4010953;29;20035;-89
2023/04/06 10:30:09;;;;;;;23.85;7.85;;;12.20;58.10;;;;;;4013587;29;20047;-91
2023/04/06 10:32:12;;;;;;;15.18;8.13;;;12.40;58.40;;;;;;3998613;29;20030;-89
2023/04/06 10:34:14;;;;;;;14.82;8.57;;;12.50;58.40;;;;;;4011603;29;20077;-91
2023/04/06 10:36:27;;;;;;;17.42;7.50;;;12.60;57.90;;;;;;4001017;29;20078;-91
2023/04/06 10:38:37;;;;;;;16.20;7.97;;;12.40;56.50;;;;;;4011731;29;20066;-91
2023/04/06 10:40:39;;;;;;;14.20;7.30;;;12.50;57.20;;;;;;3996908;29;20144;-92
2023/04/06 10:42:40;;;;;;;12.70;6.95;;;12.50;57.70;;;;;;4012983;29;20041;-92
2023/04/06 10:44:44;;;;;;;13.52;7.85;;;12.70;58.40;;;;;;3996617;29;20112;-91
2023/04/06 10:46:57;;;;;;;12.35;7.88;;;13.00;58.30;;;;;;4012925;29;20061;-90
2023/04/06 10:49:10;;;;;;;18.75;9.20;;;12.60;57.30;;;;;;3997056;29;20054;-91
2023/04/06 10:51:13;;;;;;;14.77;8.25;;;13.10;57.40;;;;;;4007043;29;20107;-91
2023/04/06 10:53:35;;;;;;;19.00;8.20;;;13.10;57.10;;;;;;4013485;29;20131;-91